createdAt,value
2019-04-11T00:00:37.582Z,5.39
2019-04-11T00:03:06.339Z,5.29
2019-04-11T00:05:35.176Z,5.29
2019-04-11T00:08:03.956Z,5.28
2019-04-11T00:10:33.351Z,5.25
2019-04-11T00:13:15.124Z,5.34
2019-04-11T00:15:32.914Z,5.24
2019-04-11T00:18:02.721Z,5.18
2019-04-11T00:20:31.923Z,5.18
2019-04-11T00:23:01.855Z,5.14
2019-04-11T00:25:31.686Z,5.16
2019-04-11T00:28:01.564Z,5.16
2019-04-11T00:30:30.472Z,5.20
2019-04-11T00:33:00.194Z,5.08
2019-04-11T00:35:29.081Z,5.08
2019-04-11T00:37:57.826Z,5.06
2019-04-11T00:40:26.981Z,5.06
2019-04-11T00:42:55.892Z,5.14
2019-04-11T00:45:24.677Z,5.20
2019-04-11T00:47:53.417Z,5.14
2019-04-11T00:50:23.193Z,5.23
2019-04-11T00:52:52.002Z,5.15
2019-04-11T00:55:21.706Z,5.07
2019-04-11T00:57:50.581Z,5.22
2019-04-11T01:00:20.792Z,5.22
2019-04-11T01:02:49.753Z,5.17
2019-04-11T01:05:18.522Z,5.08
2019-04-11T01:07:47.255Z,5.15
2019-04-11T01:10:16.257Z,5.06
2019-04-11T01:12:44.988Z,4.99
2019-04-11T01:15:15.505Z,4.85
2019-04-11T01:17:45.381Z,4.78
2019-04-11T01:20:15.373Z,4.88
2019-04-11T01:22:44.561Z,4.84
2019-04-11T01:25:14.641Z,4.89
2019-04-11T01:27:43.555Z,4.85
2019-04-11T01:30:15.750Z,4.94
2019-04-11T01:32:44.710Z,4.88
2019-04-11T01:35:13.509Z,4.76
2019-04-11T01:37:42.256Z,4.83
2019-04-11T01:40:11.807Z,4.79
2019-04-11T01:42:41.791Z,4.64
2019-04-11T01:45:11.587Z,4.76
2019-04-11T01:47:57.394Z,4.74
2019-04-11T01:50:27.751Z,4.83
2019-04-11T01:52:56.536Z,4.75
2019-04-11T01:55:26.206Z,4.72
2019-04-11T01:57:55.179Z,4.53
2019-04-11T02:00:37.745Z,4.58
2019-04-11T02:03:10.800Z,4.45
2019-04-11T02:05:39.799Z,4.39
2019-04-11T02:08:09.257Z,4.47
2019-04-11T02:10:39.102Z,4.58
2019-04-11T02:13:08.010Z,4.53
2019-04-11T02:15:36.750Z,4.49
2019-04-11T02:18:05.549Z,4.31
2019-04-11T02:20:34.293Z,4.30
2019-04-11T02:23:10.920Z,4.28
2019-04-11T02:25:41.363Z,4.41
2019-04-11T02:28:10.694Z,4.27
2019-04-11T02:30:43.167Z,4.31
2019-04-11T02:33:13.528Z,4.31
2019-04-11T02:35:42.873Z,4.33
2019-04-11T02:38:14.240Z,4.35
2019-04-11T02:40:43.698Z,4.28
2019-04-11T02:43:15.291Z,4.24
2019-04-11T02:45:57.075Z,4.17
2019-04-11T02:48:16.143Z,4.23
2019-04-11T02:50:45.914Z,4.22
2019-04-11T02:53:16.800Z,4.18
2019-04-11T02:55:46.794Z,4.06
2019-04-11T02:58:16.214Z,4.21
2019-04-11T03:00:45.639Z,4.05
2019-04-11T03:03:15.004Z,4.00
2019-04-11T03:05:46.334Z,3.88
2019-04-11T03:08:18.920Z,4.02
2019-04-11T03:10:46.206Z,4.03
2019-04-11T03:13:16.780Z,3.87
2019-04-11T03:15:59.494Z,3.97
2019-04-11T03:18:35.561Z,4.05
2019-04-11T03:20:52.937Z,4.15
2019-04-11T03:23:20.590Z,3.97
2019-04-11T03:25:49.084Z,4.00
2019-04-11T03:28:22.929Z,4.02
2019-04-11T03:31:21.958Z,4.06
2019-04-11T03:36:38.666Z,4.02
2019-04-11T03:38:42.631Z,4.03
2019-04-11T03:41:10.265Z,3.92
2019-04-11T03:43:33.792Z,3.96
2019-04-11T03:46:15.885Z,3.92
2019-04-11T03:48:37.993Z,3.91
2019-04-11T03:50:57.142Z,3.99
2019-04-11T03:53:27.769Z,3.82
2019-04-11T03:55:56.172Z,3.87
2019-04-11T03:58:25.922Z,3.80
2019-04-11T04:00:59.392Z,3.74
2019-04-11T04:03:26.853Z,3.76
2019-04-11T04:05:57.404Z,3.75
2019-04-11T04:08:29.132Z,3.82
2019-04-11T04:11:14.891Z,3.85
2019-04-11T04:13:49.842Z,3.73
2019-04-11T04:16:40.898Z,3.81
2019-04-11T04:19:11.698Z,3.73
2019-04-11T04:21:40.819Z,3.78
2019-04-11T04:24:31.880Z,3.72
2019-04-11T04:27:01.573Z,3.66
2019-04-11T04:29:32.080Z,3.66
2019-04-11T04:32:00.604Z,3.67
2019-04-11T04:34:29.390Z,3.74
2019-04-11T04:37:00.073Z,3.66
2019-04-11T04:39:29.939Z,3.66
2019-04-11T04:42:06.810Z,3.67
2019-04-11T04:44:31.608Z,3.50
2019-04-11T04:47:13.895Z,3.51
2019-04-11T04:49:32.341Z,3.58
2019-04-11T04:52:01.607Z,3.55
2019-04-11T04:54:30.853Z,3.60
2019-04-11T04:57:00.947Z,3.53
2019-04-11T04:59:31.848Z,3.60
2019-04-11T05:02:01.722Z,3.54
2019-04-11T05:04:31.836Z,3.43
2019-04-11T05:07:01.085Z,3.51
2019-04-11T05:09:30.023Z,3.47
2019-04-11T05:11:58.805Z,3.42
2019-04-11T05:14:28.162Z,3.41
2019-04-11T05:16:58.239Z,3.50
2019-04-11T05:19:28.495Z,3.40
2019-04-11T05:21:57.605Z,3.43
2019-04-11T05:24:26.483Z,3.49
2019-04-11T05:26:55.844Z,3.53
2019-04-11T05:29:25.021Z,3.31
2019-04-11T05:31:54.684Z,3.24
2019-04-11T05:34:23.891Z,3.36
2019-04-11T05:36:53.308Z,3.28
2019-04-11T05:39:23.326Z,3.33
2019-04-11T05:41:52.339Z,3.53
2019-04-11T05:44:21.109Z,3.47
2019-04-11T05:46:57.247Z,3.36
2019-04-11T05:49:23.190Z,3.52
2019-04-11T05:51:58.607Z,3.36
2019-04-11T05:54:28.706Z,3.39
2019-04-11T05:57:03.185Z,3.28
2019-04-11T05:59:32.728Z,3.27
2019-04-11T06:02:07.598Z,3.28
2019-04-11T06:04:40.910Z,3.38
2019-04-11T06:07:14.658Z,3.35
2019-04-11T06:09:44.225Z,3.26
2019-04-11T06:12:21.240Z,3.25
2019-04-11T06:14:55.329Z,3.49
2019-04-11T06:17:24.559Z,3.51
2019-04-11T06:20:11.581Z,3.52
2019-04-11T06:22:42.919Z,3.53
2019-04-11T06:25:17.159Z,3.64
2019-04-11T06:27:51.545Z,3.57
2019-04-11T06:30:34.642Z,3.65
2019-04-11T06:33:13.634Z,3.62
2019-04-11T06:35:46.851Z,3.62
2019-04-11T06:38:17.165Z,3.74
2019-04-11T06:40:54.461Z,3.91
2019-04-11T06:43:34.207Z,3.97
2019-04-11T06:46:13.634Z,3.99
2019-04-11T06:48:49.684Z,3.90
2019-04-11T06:51:26.110Z,3.82
2019-04-11T06:54:12.712Z,3.88
2019-04-11T06:56:43.457Z,3.94
2019-04-11T06:59:14.384Z,3.84
2019-04-11T07:01:45.419Z,3.75
2019-04-11T07:04:32.125Z,3.90
2019-04-11T07:07:02.491Z,3.94
2019-04-11T07:09:45.044Z,4.00
2019-04-11T07:12:18.791Z,3.86
2019-04-11T07:14:55.174Z,3.97
2019-04-11T07:17:43.900Z,4.02
2019-04-11T07:20:20.761Z,4.07
2019-04-11T07:23:07.893Z,4.19
2019-04-11T07:25:47.443Z,4.21
2019-04-11T07:28:30.160Z,4.21
2019-04-11T07:31:10.534Z,4.27
2019-04-11T07:33:45.050Z,4.30
2019-04-11T07:36:32.185Z,4.23
2019-04-11T07:39:12.894Z,4.26
2019-04-11T07:41:45.698Z,4.47
2019-04-11T07:44:34.432Z,4.50
2019-04-11T07:47:17.274Z,4.51
2019-04-11T07:49:42.970Z,4.56
2019-04-11T07:52:19.100Z,4.68
2019-04-11T07:54:47.900Z,4.81
2019-04-11T07:57:33.625Z,4.99
2019-04-11T08:00:08.065Z,5.09
2019-04-11T08:02:50.474Z,4.85
2019-04-11T08:05:21.510Z,4.97
2019-04-11T08:07:58.006Z,5.14
2019-04-11T08:10:45.755Z,5.24
2019-04-11T08:13:28.401Z,5.22
2019-04-11T08:16:02.181Z,5.17
2019-04-11T08:18:47.123Z,5.12
2019-04-11T08:21:35.444Z,5.11
2019-04-11T08:24:04.855Z,5.18
2019-04-11T08:26:35.918Z,5.20
2019-04-11T08:29:11.667Z,5.29
2019-04-11T08:31:55.218Z,5.12
2019-04-11T08:34:25.325Z,5.27
2019-04-11T08:37:11.985Z,5.45
2019-04-11T08:39:41.570Z,5.48
2019-04-11T08:42:17.544Z,5.55
2019-04-11T08:44:46.355Z,5.58
2019-04-11T08:47:16.173Z,5.50
2019-04-11T08:49:46.078Z,5.33
2019-04-11T08:52:16.460Z,5.50
2019-04-11T08:54:47.925Z,5.47
2019-04-11T08:57:18.379Z,5.57
2019-04-11T08:59:54.670Z,5.66
2019-04-11T09:02:24.765Z,5.65
2019-04-11T09:05:15.143Z,5.64
2019-04-11T09:07:43.538Z,5.67
2019-04-11T09:10:31.705Z,5.60
2019-04-11T09:13:19.399Z,5.71
2019-04-11T09:16:06.075Z,5.99
2019-04-11T09:18:36.522Z,6.06
2019-04-11T09:21:07.835Z,5.99
2019-04-11T09:23:37.896Z,6.26
2019-04-11T09:26:25.656Z,6.29
2019-04-11T09:28:54.531Z,6.36
2019-04-11T09:31:41.483Z,6.07
2019-04-11T09:34:15.664Z,6.24
2019-04-11T09:36:49.331Z,6.34
2019-04-11T09:39:26.707Z,6.24
2019-04-11T09:42:07.167Z,6.26
2019-04-11T09:44:49.846Z,6.30
2019-04-11T09:47:30.406Z,6.33
2019-04-11T09:50:02.238Z,6.60
2019-04-11T09:52:33.227Z,6.57
2019-04-11T09:55:06.894Z,6.65
2019-04-11T09:57:37.210Z,6.73
2019-04-11T10:00:26.393Z,6.84
2019-04-11T10:02:58.639Z,6.95
2019-04-11T10:05:32.269Z,7.04
2019-04-11T10:08:14.911Z,7.06
2019-04-11T10:11:01.665Z,7.22
2019-04-11T10:13:44.967Z,7.21
2019-04-11T10:16:28.366Z,6.99
2019-04-11T10:19:11.688Z,7.04
2019-04-11T10:21:50.949Z,7.31
2019-04-11T10:24:22.460Z,7.20
2019-04-11T10:26:53.066Z,7.44
2019-04-11T10:29:39.882Z,7.55
2019-04-11T10:32:10.750Z,7.53
2019-04-11T10:34:57.676Z,7.35
2019-04-11T10:37:27.538Z,7.66
2019-04-11T10:40:08.052Z,7.77
2019-04-11T10:42:36.934Z,7.67
2019-04-11T10:45:20.706Z,7.75
2019-04-11T10:47:49.437Z,7.90
2019-04-11T10:50:25.775Z,7.97
2019-04-11T10:52:56.066Z,7.96
2019-04-11T10:55:27.371Z,8.09
2019-04-11T10:58:04.777Z,7.83
2019-04-11T11:00:41.073Z,8.04
2019-04-11T11:03:18.205Z,8.24
2019-04-11T11:05:49.342Z,8.18
2019-04-11T11:08:34.984Z,8.48
2019-04-11T11:11:08.315Z,8.76
2019-04-11T11:13:39.619Z,8.86
2019-04-11T11:16:10.366Z,8.84
2019-04-11T11:19:20.887Z,8.89
2019-04-11T11:21:24.993Z,9.06
2019-04-11T11:24:05.432Z,8.97
2019-04-11T11:26:33.667Z,9.00
2019-04-11T11:29:15.147Z,8.80
2019-04-11T11:31:42.837Z,8.95
2019-04-11T11:34:17.352Z,8.86
2019-04-11T11:36:55.001Z,8.96
2019-04-11T11:39:26.877Z,9.04
2019-04-11T11:42:14.389Z,9.10
2019-04-11T11:44:53.596Z,9.05
2019-04-11T11:47:39.571Z,9.15
2019-04-11T11:50:15.527Z,9.25
2019-04-11T11:52:45.508Z,9.42
2019-04-11T11:55:18.584Z,9.44
2019-04-11T11:57:48.049Z,9.25
2019-04-11T12:00:18.702Z,9.36
2019-04-11T12:02:53.946Z,9.48
2019-04-11T12:05:26.400Z,9.51
2019-04-11T12:08:00.250Z,9.13
2019-04-11T12:10:32.530Z,9.30
2019-04-11T12:13:06.698Z,9.40
2019-04-11T12:15:37.745Z,9.68
2019-04-11T12:18:11.023Z,9.78
2019-04-11T12:20:47.890Z,9.53
2019-04-11T12:23:19.665Z,9.40
2019-04-11T12:25:49.388Z,9.24
2019-04-11T12:28:25.794Z,9.24
2019-04-11T12:31:00.674Z,9.29
2019-04-11T12:33:31.156Z,9.41
2019-04-11T12:36:07.308Z,9.50
2019-04-11T12:38:43.716Z,9.52
2019-04-11T12:41:14.090Z,9.75
2019-04-11T12:43:59.787Z,10.03
2019-04-11T12:46:38.908Z,10.14
2019-04-11T12:49:27.663Z,9.88
2019-04-11T12:52:14.253Z,9.71
2019-04-11T12:54:50.306Z,9.70
2019-04-11T12:57:37.314Z,9.65
2019-04-11T13:00:09.446Z,9.79
2019-04-11T13:02:56.189Z,9.80
2019-04-11T13:05:25.809Z,9.73
2019-04-11T13:08:12.375Z,9.42
2019-04-11T13:10:43.485Z,8.95
2019-04-11T13:13:16.859Z,8.76
2019-04-11T13:15:47.495Z,8.52
2019-04-11T13:18:23.913Z,8.69
2019-04-11T13:20:54.238Z,8.77
2019-04-11T13:23:30.430Z,8.72
2019-04-11T13:26:00.764Z,8.65
2019-04-11T13:28:31.169Z,8.74
2019-04-11T13:31:16.512Z,8.72
2019-04-11T13:33:45.620Z,8.72
2019-04-11T13:36:31.274Z,8.87
2019-04-11T13:39:02.348Z,8.74
2019-04-11T13:41:44.108Z,8.79
2019-04-11T13:44:14.413Z,9.04
2019-04-11T13:46:53.955Z,8.99
2019-04-11T13:49:30.524Z,9.06
2019-04-11T13:52:17.355Z,8.81
2019-04-11T13:55:06.141Z,8.55
2019-04-11T13:57:54.519Z,8.61
2019-04-11T14:00:39.698Z,8.65
2019-04-11T14:03:26.381Z,8.56
2019-04-11T14:05:57.180Z,8.61
2019-04-11T14:08:36.336Z,8.35
2019-04-11T14:11:06.840Z,8.41
2019-04-11T14:13:37.125Z,8.49
2019-04-11T14:16:07.639Z,8.39
2019-04-11T14:18:41.622Z,8.60
2019-04-11T14:21:20.939Z,8.77
2019-04-11T14:24:06.525Z,9.00
2019-04-11T14:26:36.866Z,9.06
2019-04-11T14:29:13.284Z,9.09
2019-04-11T14:32:01.855Z,9.01
2019-04-11T14:34:35.271Z,9.11
2019-04-11T14:37:05.590Z,9.10
2019-04-11T14:39:35.925Z,9.00
2019-04-11T14:42:06.492Z,9.08
2019-04-11T14:44:39.797Z,9.10
2019-04-11T14:47:26.348Z,9.17
2019-04-11T14:49:56.642Z,9.07
2019-04-11T14:52:46.482Z,9.14
2019-04-11T14:55:14.070Z,8.98
2019-04-11T14:57:47.167Z,8.85
2019-04-11T15:00:34.664Z,8.91
2019-04-11T15:03:04.955Z,8.88
2019-04-11T15:05:35.294Z,8.68
2019-04-11T15:08:04.615Z,8.79
2019-04-11T15:10:34.928Z,8.80
2019-04-11T15:13:04.520Z,9.06
2019-04-11T15:15:40.807Z,9.06
2019-04-11T15:18:09.618Z,9.00
2019-04-11T15:20:41.179Z,9.06
2019-04-11T15:23:20.839Z,8.74
2019-04-11T15:26:03.072Z,8.76
2019-04-11T15:28:36.432Z,8.90
2019-04-11T15:31:18.426Z,9.02
2019-04-11T15:33:51.082Z,9.13
2019-04-11T15:36:21.392Z,8.92
2019-04-11T15:38:54.713Z,8.91
2019-04-11T15:41:23.512Z,8.71
2019-04-11T15:43:59.613Z,8.60
2019-04-11T15:46:29.951Z,8.79
2019-04-11T15:49:21.925Z,8.75
2019-04-11T15:51:48.631Z,8.82
2019-04-11T15:54:18.953Z,8.77
2019-04-11T15:56:49.270Z,8.79
2019-04-11T15:59:25.636Z,8.74
2019-04-11T16:02:12.370Z,8.51
2019-04-11T16:04:45.654Z,8.62
2019-04-11T16:07:15.994Z,8.36
2019-04-11T16:09:46.312Z,8.36
2019-04-11T16:12:19.493Z,8.25
2019-04-11T16:15:06.050Z,8.25
2019-04-11T16:17:44.636Z,8.20
2019-04-11T16:20:17.845Z,8.22
2019-04-11T16:23:03.416Z,7.98
2019-04-11T16:25:32.173Z,7.89
2019-04-11T16:28:07.127Z,7.84
2019-04-11T16:30:39.805Z,7.82
2019-04-11T16:33:13.251Z,7.80
2019-04-11T16:35:49.410Z,7.79
2019-04-11T16:38:25.520Z,7.73
2019-04-11T16:41:12.351Z,7.77
2019-04-11T16:43:42.691Z,7.54
2019-04-11T16:46:29.372Z,7.51
2019-04-11T16:48:58.151Z,7.40
2019-04-11T16:51:31.019Z,7.41
2019-04-11T16:53:57.371Z,7.40
2019-04-11T16:56:26.101Z,7.51
2019-04-11T16:58:54.951Z,7.50
2019-04-11T17:01:23.874Z,7.30
2019-04-11T17:03:54.793Z,7.30
2019-04-11T17:06:36.790Z,7.33
2019-04-11T17:09:15.173Z,7.17
2019-04-11T17:11:43.951Z,7.30
2019-04-11T17:14:12.692Z,7.26
2019-04-11T17:16:41.531Z,6.99
2019-04-11T17:19:11.817Z,6.83
2019-04-11T17:21:43.450Z,6.69
2019-04-11T17:24:11.151Z,6.70
2019-04-11T17:26:39.910Z,6.72
2019-04-11T17:29:08.773Z,6.77
2019-04-11T17:31:37.552Z,6.71
2019-04-11T17:34:06.332Z,6.82
2019-04-11T17:36:35.191Z,6.87
2019-04-11T17:39:07.028Z,6.83
2019-04-11T17:41:36.532Z,6.63
2019-04-11T17:44:05.312Z,6.59
2019-04-11T17:46:34.179Z,6.62
2019-04-11T17:49:02.992Z,6.61
2019-04-11T17:51:34.386Z,6.44
2019-04-11T17:54:02.332Z,6.45
2019-04-11T17:56:31.152Z,6.21
2019-04-11T17:58:59.955Z,6.05
2019-04-11T18:01:28.832Z,6.23
2019-04-11T18:03:57.652Z,5.95
2019-04-11T18:06:26.533Z,5.89
2019-04-11T18:08:55.287Z,5.97
2019-04-11T18:11:26.136Z,6.05
2019-04-11T18:13:54.750Z,6.09
2019-04-11T18:16:23.566Z,6.54
2019-04-11T18:18:53.952Z,6.89
2019-04-11T18:21:22.832Z,7.28
2019-04-11T18:23:51.631Z,7.63
2019-04-11T18:26:21.510Z,7.64
2019-04-11T18:28:52.022Z,7.68
2019-04-11T18:31:24.797Z,7.45
2019-04-11T18:33:52.152Z,7.11
2019-04-11T18:36:20.952Z,6.79
2019-04-11T18:38:49.828Z,6.60
2019-04-11T18:41:18.660Z,6.52
2019-04-11T18:43:47.914Z,6.44
2019-04-11T18:46:16.972Z,6.35
2019-04-11T18:48:45.858Z,6.16
2019-04-11T18:51:14.851Z,6.11
2019-04-11T18:53:43.731Z,6.16
2019-04-11T18:56:12.612Z,6.09
2019-04-11T18:58:41.532Z,6.08
2019-04-11T19:01:10.493Z,6.06
2019-04-11T19:03:41.393Z,6.02
2019-04-11T19:06:12.870Z,5.94
2019-04-11T19:08:43.106Z,5.95
2019-04-11T19:11:11.171Z,5.81
2019-04-11T19:13:40.135Z,5.79
2019-04-11T19:16:09.011Z,5.79
2019-04-11T19:18:37.866Z,5.75
2019-04-11T19:21:06.731Z,5.63
2019-04-11T19:23:36.731Z,5.56
2019-04-11T19:26:06.213Z,5.64
2019-04-11T19:28:35.053Z,5.58
2019-04-11T19:31:03.931Z,5.56
2019-04-11T19:33:34.367Z,5.52
2019-04-11T19:36:03.451Z,5.53
2019-04-11T19:38:43.024Z,5.50
2019-04-11T19:41:09.850Z,5.50
2019-04-11T19:43:40.783Z,5.49
2019-04-11T19:46:09.211Z,5.42
2019-04-11T19:48:38.010Z,5.31
2019-04-11T19:51:06.895Z,5.16
2019-04-11T19:53:35.817Z,5.12
2019-04-11T19:56:15.209Z,5.09
2019-04-11T19:58:43.969Z,5.13
2019-04-11T20:01:12.729Z,5.12
2019-04-11T20:03:41.529Z,5.08
2019-04-11T20:06:14.650Z,5.06
2019-04-11T20:08:41.209Z,5.07
2019-04-11T20:11:10.271Z,4.98
2019-04-11T20:13:39.343Z,4.95
2019-04-11T20:16:12.253Z,4.96
2019-04-11T20:18:50.279Z,4.94
2019-04-11T20:21:11.568Z,4.86
2019-04-11T20:23:41.861Z,4.80
2019-04-11T20:26:11.427Z,4.79
2019-04-11T20:28:40.625Z,4.47
2019-04-11T20:31:09.786Z,4.53
2019-04-11T20:33:40.025Z,4.50
2019-04-11T20:36:11.177Z,4.47
2019-04-11T20:38:40.069Z,4.49
2019-04-11T20:41:09.066Z,4.47
2019-04-11T20:43:38.347Z,4.25
2019-04-11T20:46:07.560Z,4.26
2019-04-11T20:48:36.705Z,4.27
2019-04-11T20:51:05.867Z,4.32
2019-04-11T20:53:37.529Z,4.10
2019-04-11T20:56:09.501Z,4.26
2019-04-11T20:58:39.690Z,4.10
2019-04-11T21:01:07.669Z,4.11
2019-04-11T21:03:36.586Z,4.11
2019-04-11T21:06:05.785Z,4.05
2019-04-11T21:08:36.708Z,4.03
2019-04-11T21:11:05.417Z,3.98
2019-04-11T21:13:38.120Z,4.00
2019-04-11T21:16:04.650Z,3.89
2019-04-11T21:18:33.450Z,3.96
2019-04-11T21:21:02.213Z,3.94
2019-04-11T21:23:31.049Z,4.08
2019-04-11T21:25:59.811Z,3.92
2019-04-11T21:28:30.341Z,3.86
2019-04-11T21:31:00.242Z,3.98
2019-04-11T21:33:29.531Z,3.85
2019-04-11T21:35:58.332Z,3.81
2019-04-11T21:38:28.182Z,3.79
2019-04-11T21:40:57.770Z,3.91
2019-04-11T21:43:26.490Z,3.81
2019-04-11T21:45:55.292Z,3.69
2019-04-11T21:48:24.489Z,3.60
2019-04-11T21:50:53.250Z,3.62
2019-04-11T21:53:22.061Z,3.61
2019-04-11T21:55:50.850Z,3.55
2019-04-11T21:58:20.458Z,3.62
2019-04-11T22:00:54.350Z,3.52
2019-04-11T22:03:24.227Z,3.61
2019-04-11T22:05:53.600Z,3.61
2019-04-11T22:08:22.356Z,3.63
2019-04-11T22:10:51.096Z,3.57
2019-04-11T22:13:19.877Z,3.57
2019-04-11T22:15:48.618Z,3.58
2019-04-11T22:18:17.439Z,3.52
2019-04-11T22:20:46.219Z,3.49
2019-04-11T22:23:14.997Z,3.54
2019-04-11T22:25:43.796Z,3.50
2019-04-11T22:28:12.557Z,3.54
2019-04-11T22:30:41.337Z,3.40
2019-04-11T22:33:27.633Z,3.35
2019-04-11T22:35:59.357Z,3.44
2019-04-11T22:38:30.529Z,3.50
2019-04-11T22:41:01.539Z,3.50
2019-04-11T22:43:28.705Z,3.34
2019-04-11T22:45:57.416Z,3.43
2019-04-11T22:48:26.144Z,3.37
2019-04-11T22:50:54.916Z,3.35
2019-04-11T22:53:23.856Z,3.44
2019-04-11T22:55:52.680Z,3.40
2019-04-11T22:58:21.466Z,3.51
2019-04-11T23:00:51.618Z,3.38
2019-04-11T23:03:24.897Z,3.43
2019-04-11T23:05:53.656Z,3.35
2019-04-11T23:08:22.456Z,3.40
2019-04-11T23:10:51.200Z,3.33
2019-04-11T23:13:19.996Z,3.47
2019-04-11T23:15:48.756Z,3.27
2019-04-11T23:18:17.477Z,3.28
2019-04-11T23:20:46.277Z,3.18
2019-04-11T23:23:14.996Z,3.15
2019-04-11T23:25:43.816Z,3.19
2019-04-11T23:28:15.580Z,3.18
2019-04-11T23:30:43.036Z,3.15
2019-04-11T23:33:11.816Z,3.31
2019-04-11T23:35:40.578Z,3.25
2019-04-11T23:38:09.419Z,3.22
2019-04-11T23:40:38.138Z,3.18
2019-04-11T23:43:06.911Z,3.26
2019-04-11T23:45:35.736Z,3.26
2019-04-11T23:48:04.498Z,3.31
2019-04-11T23:50:33.296Z,3.20
2019-04-11T23:53:02.058Z,3.12
2019-04-11T23:55:30.974Z,3.13
2019-04-11T23:58:01.702Z,3.12
